createdAt,value
2018-05-27T00:00:14.856Z,100573
2018-05-27T00:05:16.355Z,100582
2018-05-27T00:10:18.032Z,100564
2018-05-27T00:15:19.556Z,100549
2018-05-27T00:20:21.194Z,100547
2018-05-27T00:25:22.960Z,100529
2018-05-27T00:30:25.466Z,100532
2018-05-27T00:35:27.185Z,100524
2018-05-27T00:40:28.738Z,100518
2018-05-27T00:45:30.470Z,100520
2018-05-27T00:50:31.964Z,100509
2018-05-27T00:55:33.485Z,100516
2018-05-27T01:00:35.997Z,100518
2018-05-27T01:05:37.584Z,100517
2018-05-27T01:10:39.103Z,100521
2018-05-27T01:15:40.610Z,100505
2018-05-27T01:20:42.383Z,100511
2018-05-27T01:25:43.907Z,100499
2018-05-27T01:30:45.447Z,100496
2018-05-27T01:35:46.964Z,100490
2018-05-27T01:40:49.171Z,100497
2018-05-27T01:45:50.945Z,100489
2018-05-27T01:50:52.499Z,100485
2018-05-27T01:55:54.274Z,100479
2018-05-27T02:00:55.883Z,100483
2018-05-27T02:05:57.561Z,100486
2018-05-27T02:10:59.336Z,100467
2018-05-27T02:16:00.944Z,100460
2018-05-27T02:21:03.249Z,100455
2018-05-27T02:26:04.817Z,100446
2018-05-27T02:31:06.586Z,100445
2018-05-27T02:36:08.263Z,100451
2018-05-27T02:41:09.763Z,100445
2018-05-27T02:46:11.365Z,100455
2018-05-27T02:51:13.156Z,100449
2018-05-27T02:56:15.415Z,100449
2018-05-27T03:01:17.118Z,100438
2018-05-27T03:06:19.374Z,100444
2018-05-27T03:11:20.892Z,100440
2018-05-27T03:16:22.367Z,100444
2018-05-27T03:21:24.203Z,100436
2018-05-27T03:26:26.650Z,100440
2018-05-27T03:31:28.151Z,100445
2018-05-27T03:36:30.427Z,100445
2018-05-27T03:41:31.938Z,100444
2018-05-27T03:46:33.435Z,100446
2018-05-27T03:51:34.985Z,100462
2018-05-27T03:56:36.497Z,100458
2018-05-27T04:01:38.015Z,100462
2018-05-27T04:06:57.706Z,100457
2018-05-27T04:12:00.282Z,100452
2018-05-27T04:17:02.040Z,100455
2018-05-27T04:22:04.298Z,100459
2018-05-27T04:27:05.808Z,100462
2018-05-27T04:32:07.380Z,100465
2018-05-27T04:37:08.875Z,100474
2018-05-27T04:42:10.367Z,100473
2018-05-27T04:47:11.874Z,100467
2018-05-27T04:52:13.412Z,100471
2018-05-27T04:57:15.103Z,100477
2018-05-27T05:02:17.606Z,100476
2018-05-27T05:07:19.166Z,100482
2018-05-27T05:12:21.654Z,100476
2018-05-27T05:17:23.158Z,100487
2018-05-27T05:22:24.803Z,100483
2018-05-27T05:27:26.391Z,100485
2018-05-27T05:32:28.130Z,100488
2018-05-27T05:37:30.400Z,100484
2018-05-27T05:42:32.842Z,100482
2018-05-27T05:47:34.708Z,100493
2018-05-27T05:52:36.373Z,100481
2018-05-27T05:57:37.923Z,100492
2018-05-27T06:02:40.178Z,100495
2018-05-27T06:07:41.986Z,100481
2018-05-27T06:12:43.586Z,100485
2018-05-27T06:17:45.114Z,100480
2018-05-27T06:22:47.370Z,100482
2018-05-27T06:27:48.934Z,100480
2018-05-27T06:32:50.481Z,100485
2018-05-27T06:43:29.961Z,100481
2018-05-27T06:48:32.239Z,100476
2018-05-27T06:53:33.813Z,100479
2018-05-27T06:58:35.504Z,100477
2018-05-27T07:03:37.223Z,100487
2018-05-27T07:08:39.812Z,100490
2018-05-27T07:13:43.460Z,100485
2018-05-27T07:18:45.652Z,100484
2018-05-27T07:23:47.917Z,100484
2018-05-27T07:28:51.698Z,100494
2018-05-27T07:39:40.242Z,100479
2018-05-27T07:44:42.722Z,100489
2018-05-27T07:49:45.203Z,100486
2018-05-27T07:54:48.258Z,100495
2018-05-27T08:00:17.037Z,100498
2018-05-27T08:05:20.908Z,100499
2018-05-27T08:10:25.313Z,100495
2018-05-27T08:15:30.544Z,100497
2018-05-27T08:20:37.454Z,100494
2018-05-27T08:25:41.027Z,100496
2018-05-27T08:30:46.358Z,100495
2018-05-27T08:35:50.591Z,100497
2018-05-27T08:40:53.885Z,100506
2018-05-27T08:45:56.561Z,100504
2018-05-27T08:51:01.174Z,100507
2018-05-27T08:56:08.825Z,100505
2018-05-27T09:01:14.189Z,100514
2018-05-27T09:06:19.857Z,100505
2018-05-27T09:11:26.023Z,100506
2018-05-27T09:16:30.888Z,100501
2018-05-27T09:21:35.683Z,100494
2018-05-27T09:26:40.960Z,100499
2018-05-27T09:31:48.105Z,100498
2018-05-27T09:36:59.300Z,100500
2018-05-27T09:42:06.441Z,100502
2018-05-27T09:47:11.799Z,100509
2018-05-27T09:52:17.740Z,100505
2018-05-27T09:57:26.915Z,100507
2018-05-27T10:02:36.389Z,100507
2018-05-27T10:07:39.143Z,100503
2018-05-27T10:12:40.928Z,100497
2018-05-27T10:17:42.659Z,100501
2018-05-27T10:22:44.615Z,100504
2018-05-27T10:27:47.119Z,100499
2018-05-27T10:32:50.145Z,100497
2018-05-27T10:37:52.194Z,100476
2018-05-27T10:42:54.212Z,100473
2018-05-27T10:47:56.069Z,100473
2018-05-27T10:52:57.945Z,100461
2018-05-27T10:57:59.590Z,100463
2018-05-27T11:03:02.674Z,100462
2018-05-27T11:08:04.144Z,100444
2018-05-27T11:13:05.739Z,100436
2018-05-27T11:18:08.257Z,100430
2018-05-27T11:23:10.020Z,100428
2018-05-27T11:28:11.789Z,100425
2018-05-27T11:33:13.566Z,100407
2018-05-27T11:38:15.265Z,100405
2018-05-27T11:43:16.982Z,100399
2018-05-27T11:48:18.667Z,100401
2018-05-27T11:53:20.988Z,100405
2018-05-27T11:58:22.732Z,100391
2018-05-27T12:03:24.409Z,100403
2018-05-27T12:08:26.067Z,100394
2018-05-27T12:13:28.356Z,100392
2018-05-27T12:18:30.137Z,100388
2018-05-27T12:23:31.870Z,100383
2018-05-27T12:28:33.403Z,100373
2018-05-27T12:33:35.928Z,100371
2018-05-27T12:38:37.593Z,100366
2018-05-27T12:43:39.296Z,100368
2018-05-27T12:48:41.575Z,100369
2018-05-27T12:53:43.838Z,100363
2018-05-27T12:58:45.545Z,100355
2018-05-27T13:03:48.731Z,100350
2018-05-27T13:08:51.047Z,100347
2018-05-27T13:13:52.747Z,100335
2018-05-27T13:18:54.429Z,100312
2018-05-27T13:23:56.184Z,100315
2018-05-27T13:28:57.939Z,100301
2018-05-27T13:33:59.519Z,100298
2018-05-27T13:39:01.118Z,100305
2018-05-27T13:44:02.935Z,100306
2018-05-27T13:49:05.532Z,100308
2018-05-27T13:54:07.323Z,100303
2018-05-27T13:59:08.868Z,100305
2018-05-27T14:04:11.147Z,100300
2018-05-27T14:09:13.599Z,100297
2018-05-27T14:14:15.220Z,100307
2018-05-27T14:19:16.755Z,100311
2018-05-27T14:24:18.396Z,100309
2018-05-27T14:29:19.909Z,100315
2018-05-27T14:34:22.434Z,100297
2018-05-27T14:39:24.084Z,100302
2018-05-27T14:44:25.637Z,100300
2018-05-27T14:49:28.012Z,100292
2018-05-27T14:54:29.688Z,100298
2018-05-27T14:59:31.245Z,100305
2018-05-27T15:04:32.902Z,100303
2018-05-27T15:09:34.604Z,100301
2018-05-27T15:14:36.968Z,100302
2018-05-27T15:19:38.972Z,100297
2018-05-27T15:24:41.278Z,100294
2018-05-27T15:29:42.907Z,100298
2018-05-27T15:34:44.435Z,100291
2018-05-27T15:39:45.972Z,100292
2018-05-27T15:44:48.272Z,100284
2018-05-27T15:49:50.054Z,100289
2018-05-27T15:54:51.648Z,100302
2018-05-27T15:59:53.417Z,100285
2018-05-27T16:04:54.984Z,100291
2018-05-27T16:09:56.527Z,100280
2018-05-27T16:14:58.047Z,100280
2018-05-27T16:19:59.691Z,100282
2018-05-27T16:25:01.424Z,100271
2018-05-27T16:30:03.751Z,100268
2018-05-27T16:35:05.285Z,100255
2018-05-27T16:40:06.896Z,100267
2018-05-27T16:45:08.738Z,100275
2018-05-27T16:50:10.267Z,100268
2018-05-27T16:55:11.823Z,100262
2018-05-27T17:00:13.575Z,100250
2018-05-27T17:05:15.061Z,100239
2018-05-27T17:10:16.886Z,100221
2018-05-27T17:15:18.401Z,100196
2018-05-27T17:20:19.944Z,100196
2018-05-27T17:25:21.620Z,100194
2018-05-27T17:30:23.159Z,100186
2018-05-27T17:35:24.740Z,100169
2018-05-27T17:40:28.310Z,100171
2018-05-27T17:45:29.968Z,100173
2018-05-27T17:50:31.637Z,100161
2018-05-27T17:55:33.355Z,100148
2018-05-27T18:00:34.988Z,100148
2018-05-27T18:05:36.585Z,100146
2018-05-27T18:10:38.135Z,100175
2018-05-27T18:15:40.143Z,100192
2018-05-27T18:20:41.756Z,100198
2018-05-27T18:25:43.368Z,100204
2018-05-27T18:30:45.778Z,100220
2018-05-27T18:35:47.325Z,100225
2018-05-27T18:40:48.892Z,100247
2018-05-27T18:45:51.344Z,100258
2018-05-27T18:50:52.921Z,100252
2018-05-27T18:55:54.754Z,100265
2018-05-27T19:00:56.321Z,100272
2018-05-27T19:05:57.985Z,100274
2018-05-27T19:10:59.880Z,100276
2018-05-27T19:16:01.512Z,100282
2018-05-27T19:21:03.035Z,100297
2018-05-27T19:26:04.631Z,100313
2018-05-27T19:31:06.945Z,100317
2018-05-27T19:36:08.572Z,100322
2018-05-27T19:41:10.194Z,100343
2018-05-27T19:46:11.722Z,100353
2018-05-27T19:51:14.017Z,100358
2018-05-27T19:56:16.349Z,100370
2018-05-27T20:01:17.934Z,100379
2018-05-27T20:06:19.674Z,100391
2018-05-27T20:11:21.157Z,100394
2018-05-27T20:16:22.685Z,100400
2018-05-27T20:21:25.021Z,100388
2018-05-27T20:26:26.614Z,100387
2018-05-27T20:31:28.398Z,100389
2018-05-27T20:36:30.041Z,100382
2018-05-27T20:41:31.783Z,100373
2018-05-27T20:46:33.285Z,100369
2018-05-27T20:51:35.287Z,100369
2018-05-27T20:56:37.610Z,100370
2018-05-27T21:01:39.125Z,100372
2018-05-27T21:06:40.664Z,100375
2018-05-27T21:11:42.248Z,100374
2018-05-27T21:16:43.808Z,100389
2018-05-27T21:21:45.391Z,100382
2018-05-27T21:26:46.931Z,100380
2018-05-27T21:31:48.452Z,100384
2018-05-27T21:36:50.739Z,100379
2018-05-27T21:41:52.332Z,100381
2018-05-27T21:46:53.870Z,100373
2018-05-27T21:51:56.212Z,100373
2018-05-27T21:56:58.563Z,100369
2018-05-27T22:02:01.130Z,100357
2018-05-27T22:07:02.706Z,100353
2018-05-27T22:12:05.036Z,100353
2018-05-27T22:17:06.576Z,100352
2018-05-27T22:22:09.146Z,100347
2018-05-27T22:27:10.735Z,100354
2018-05-27T22:32:13.036Z,100359
2018-05-27T22:37:14.665Z,100360
2018-05-27T22:42:16.257Z,100370
2018-05-27T22:47:18.581Z,100362
2018-05-27T22:52:20.179Z,100363
2018-05-27T22:57:21.785Z,100350
2018-05-27T23:02:24.026Z,100357
2018-05-27T23:07:25.891Z,100351
2018-05-27T23:12:27.466Z,100358
2018-05-27T23:17:29.006Z,100356
2018-05-27T23:22:30.585Z,100356
2018-05-27T23:27:32.208Z,100347
2018-05-27T23:32:33.803Z,100337
2018-05-27T23:37:35.567Z,100340
2018-05-27T23:42:37.354Z,100346
2018-05-27T23:47:38.893Z,100346
2018-05-27T23:52:46.053Z,100345
2018-05-27T23:57:47.624Z,100340
